Terminal Aerodrome Forecast
Issued by NWS Memphis, TN

Home | Current Version | Previous Version | Text Only | Print | Product List | Glossary On
Versions: 1 2 3 4 5 6 7 8 9 10 11 12
000
FTUS44 KMEG 050532
TAFJBR
TAF
KJBR 050532Z 0506/0606 VRB03KT P6SM VCSH SCT060 BKN150
     FM050900 VRB03KT P6SM -SHRA VCTS SCT040 BKN060CB OVC120
      TEMPO 0509/0513 4SM TSRA BR BKN040CB
     FM051300 11005KT P6SM VCSH BKN060 OVC120
     FM052000 16007KT P6SM -SHRA VCTS BKN050CB OVC120
     FM060000 17005KT P6SM VCSH BKN050 OVC120=

USA.gov is the U.S. government's official web portal to all federal, state and local government web resources and services.